sensor_id;sensor_type;location;lat;lon;timestamp;pressure;altitude;pressure_sealevel;temperature;humidity
75891;BME280;64571;47.512;19.054;2024-03-02T00:01:40;99866.16;;;11.23;89.58
75891;BME280;64571;47.512;19.054;2024-03-02T00:04:44;99870.38;;;11.21;88.70
75891;BME280;64571;47.512;19.054;2024-03-02T00:07:55;99869.06;;;11.18;88.74
75891;BME280;64571;47.512;19.054;2024-03-02T00:11:01;99876.91;;;11.16;88.24
75891;BME280;64571;47.512;19.054;2024-03-02T00:14:06;99862.81;;;11.12;88.39
75891;BME280;64571;47.512;19.054;2024-03-02T00:17:17;99856.72;;;11.10;88.62
75891;BME280;64571;47.512;19.054;2024-03-02T00:20:23;99848.72;;;11.09;88.40
75891;BME280;64571;47.512;19.054;2024-03-02T00:23:29;99842.63;;;11.07;88.16
75891;BME280;64571;47.512;19.054;2024-03-02T00:26:31;99840.09;;;10.97;89.03
75891;BME280;64571;47.512;19.054;2024-03-02T00:29:35;99848.13;;;10.98;88.95
75891;BME280;64571;47.512;19.054;2024-03-02T00:32:37;99826.44;;;10.86;89.10
75891;BME280;64571;47.512;19.054;2024-03-02T00:35:40;99846.34;;;11.02;87.66
75891;BME280;64571;47.512;19.054;2024-03-02T00:41:49;99853.06;;;11.01;89.34
75891;BME280;64571;47.512;19.054;2024-03-02T00:44:51;99859.44;;;11.02;88.89
75891;BME280;64571;47.512;19.054;2024-03-02T00:47:54;99859.25;;;10.98;91.43
75891;BME280;64571;47.512;19.054;2024-03-02T00:50:57;99843.25;;;10.81;89.15
75891;BME280;64571;47.512;19.054;2024-03-02T00:54:03;99839.34;;;10.82;88.42
75891;BME280;64571;47.512;19.054;2024-03-02T00:57:10;99871.97;;;10.90;87.96
75891;BME280;64571;47.512;19.054;2024-03-02T01:00:15;99861.78;;;10.86;88.88
75891;BME280;64571;47.512;19.054;2024-03-02T01:03:19;99843.66;;;10.75;89.05
75891;BME280;64571;47.512;19.054;2024-03-02T01:06:22;99857.38;;;10.71;88.73
75891;BME280;64571;47.512;19.054;2024-03-02T01:09:25;99862.44;;;10.69;88.33
75891;BME280;64571;47.512;19.054;2024-03-02T01:12:28;99862.75;;;10.68;88.50
75891;BME280;64571;47.512;19.054;2024-03-02T01:15:30;99837.94;;;10.57;88.81
75891;BME280;64571;47.512;19.054;2024-03-02T01:18:33;99838.59;;;10.54;88.14
75891;BME280;64571;47.512;19.054;2024-03-02T01:21:36;99835.97;;;10.58;88.70
75891;BME280;64571;47.512;19.054;2024-03-02T01:24:39;99852.94;;;10.70;87.65
75891;BME280;64571;47.512;19.054;2024-03-02T01:27:41;99836.50;;;10.60;87.83
75891;BME280;64571;47.512;19.054;2024-03-02T01:30:44;99832.25;;;10.62;86.67
75891;BME280;64571;47.512;19.054;2024-03-02T01:33:47;99837.75;;;10.68;86.67
75891;BME280;64571;47.512;19.054;2024-03-02T01:36:50;99822.50;;;10.65;87.09
75891;BME280;64571;47.512;19.054;2024-03-02T01:39:52;99799.81;;;10.49;87.64
75891;BME280;64571;47.512;19.054;2024-03-02T01:42:55;99815.72;;;10.57;86.87
75891;BME280;64571;47.512;19.054;2024-03-02T01:46:00;99812.25;;;10.52;86.42
75891;BME280;64571;47.512;19.054;2024-03-02T01:49:03;99814.59;;;10.58;86.56
75891;BME280;64571;47.512;19.054;2024-03-02T01:52:07;99804.19;;;10.64;86.61
75891;BME280;64571;47.512;19.054;2024-03-02T01:55:10;99806.62;;;10.65;87.71
75891;BME280;64571;47.512;19.054;2024-03-02T01:58:13;99814.03;;;10.70;87.94
75891;BME280;64571;47.512;19.054;2024-03-02T02:01:16;99811.59;;;10.69;87.90
75891;BME280;64571;47.512;19.054;2024-03-02T02:04:19;99809.09;;;10.67;87.01
75891;BME280;64571;47.512;19.054;2024-03-02T02:07:25;99812.06;;;10.71;85.76
75891;BME280;64571;47.512;19.054;2024-03-02T02:10:27;99828.47;;;10.72;85.53
75891;BME280;64571;47.512;19.054;2024-03-02T02:13:30;99829.56;;;10.71;85.62
75891;BME280;64571;47.512;19.054;2024-03-02T02:16:32;99829.06;;;10.69;85.53
75891;BME280;64571;47.512;19.054;2024-03-02T02:19:35;99836.59;;;10.69;85.69
75891;BME280;64571;47.512;19.054;2024-03-02T02:22:37;99841.00;;;10.70;85.97
75891;BME280;64571;47.512;19.054;2024-03-02T02:25:40;99842.28;;;10.63;85.34
75891;BME280;64571;47.512;19.054;2024-03-02T02:28:42;99829.81;;;10.61;85.56
75891;BME280;64571;47.512;19.054;2024-03-02T02:31:49;99823.88;;;10.54;85.36
75891;BME280;64571;47.512;19.054;2024-03-02T02:34:54;99841.34;;;10.68;85.16
75891;BME280;64571;47.512;19.054;2024-03-02T02:37:57;99844.72;;;10.65;85.28
75891;BME280;64571;47.512;19.054;2024-03-02T02:41:01;99832.31;;;10.49;85.34
75891;BME280;64571;47.512;19.054;2024-03-02T02:44:03;99823.97;;;10.49;85.36
75891;BME280;64571;47.512;19.054;2024-03-02T02:47:06;99841.75;;;10.61;85.26
75891;BME280;64571;47.512;19.054;2024-03-02T02:50:09;99835.38;;;10.61;84.80
75891;BME280;64571;47.512;19.054;2024-03-02T02:53:12;99814.19;;;10.51;84.84
75891;BME280;64571;47.512;19.054;2024-03-02T02:56:14;99816.28;;;10.46;85.06
75891;BME280;64571;47.512;19.054;2024-03-02T02:59:17;99808.56;;;10.43;85.24
75891;BME280;64571;47.512;19.054;2024-03-02T03:02:19;99827.16;;;10.56;86.00
75891;BME280;64571;47.512;19.054;2024-03-02T03:05:22;99824.50;;;10.51;88.20
75891;BME280;64571;47.512;19.054;2024-03-02T03:08:25;99836.22;;;10.48;89.28
75891;BME280;64571;47.512;19.054;2024-03-02T03:11:27;99836.53;;;10.46;89.02
75891;BME280;64571;47.512;19.054;2024-03-02T03:14:30;99850.63;;;10.50;89.50
75891;BME280;64571;47.512;19.054;2024-03-02T03:17:32;99831.00;;;10.32;90.67
75891;BME280;64571;47.512;19.054;2024-03-02T03:20:35;99850.63;;;10.50;90.82
75891;BME280;64571;47.512;19.054;2024-03-02T03:23:38;99851.13;;;10.52;91.49
75891;BME280;64571;47.512;19.054;2024-03-02T03:26:40;99819.34;;;10.44;91.30
75891;BME280;64571;47.512;19.054;2024-03-02T03:29:43;99836.75;;;10.50;90.19
75891;BME280;64571;47.512;19.054;2024-03-02T03:32:45;99847.53;;;10.51;89.78
75891;BME280;64571;47.512;19.054;2024-03-02T03:35:50;99844.84;;;10.60;87.72
75891;BME280;64571;47.512;19.054;2024-03-02T03:38:52;99836.84;;;10.58;85.17
75891;BME280;64571;47.512;19.054;2024-03-02T03:41:55;99839.78;;;10.62;84.25
75891;BME280;64571;47.512;19.054;2024-03-02T03:44:57;99830.38;;;10.49;82.95
75891;BME280;64571;47.512;19.054;2024-03-02T03:48:00;99845.78;;;10.55;82.58
75891;BME280;64571;47.512;19.054;2024-03-02T03:51:03;99833.97;;;10.50;82.75
75891;BME280;64571;47.512;19.054;2024-03-02T03:54:05;99850.09;;;10.61;82.80
75891;BME280;64571;47.512;19.054;2024-03-02T03:57:08;99856.69;;;10.52;83.01
75891;BME280;64571;47.512;19.054;2024-03-02T04:00:11;99840.53;;;10.40;84.41
75891;BME280;64571;47.512;19.054;2024-03-02T04:03:14;99859.78;;;10.50;84.31
75891;BME280;64571;47.512;19.054;2024-03-02T04:06:16;99873.16;;;10.48;84.72
75891;BME280;64571;47.512;19.054;2024-03-02T04:09:20;99861.03;;;10.30;85.65
75891;BME280;64571;47.512;19.054;2024-03-02T04:12:22;99873.81;;;10.31;85.80
75891;BME280;64571;47.512;19.054;2024-03-02T04:15:25;99882.62;;;10.33;87.55
75891;BME280;64571;47.512;19.054;2024-03-02T04:18:27;99862.25;;;10.10;89.00
75891;BME280;64571;47.512;19.054;2024-03-02T04:21:30;99878.91;;;10.10;89.44
75891;BME280;64571;47.512;19.054;2024-03-02T04:24:33;99859.16;;;9.98;89.90
75891;BME280;64571;47.512;19.054;2024-03-02T04:27:35;99887.22;;;9.97;90.88
75891;BME280;64571;47.512;19.054;2024-03-02T04:30:38;99885.38;;;9.92;92.16
75891;BME280;64571;47.512;19.054;2024-03-02T04:33:41;99883.91;;;9.95;92.26
75891;BME280;64571;47.512;19.054;2024-03-02T04:36:43;99881.34;;;9.84;91.96
75891;BME280;64571;47.512;19.054;2024-03-02T04:39:46;99884.72;;;9.81;92.92
75891;BME280;64571;47.512;19.054;2024-03-02T04:42:48;99883.41;;;9.79;93.26
75891;BME280;64571;47.512;19.054;2024-03-02T04:45:51;99882.47;;;9.83;93.03
75891;BME280;64571;47.512;19.054;2024-03-02T04:48:54;99874.53;;;9.77;93.51
75891;BME280;64571;47.512;19.054;2024-03-02T04:51:59;99883.91;;;9.81;94.17
75891;BME280;64571;47.512;19.054;2024-03-02T04:55:03;99882.34;;;9.75;94.54
75891;BME280;64571;47.512;19.054;2024-03-02T04:58:12;99888.31;;;9.68;95.09
75891;BME280;64571;47.512;19.054;2024-03-02T05:01:14;99868.03;;;9.54;95.33
75891;BME280;64571;47.512;19.054;2024-03-02T05:04:19;99872.75;;;9.53;95.93
75891;BME280;64571;47.512;19.054;2024-03-02T05:07:21;99881.72;;;9.64;96.73
75891;BME280;64571;47.512;19.054;2024-03-02T05:10:24;99890.97;;;9.59;96.83
75891;BME280;64571;47.512;19.054;2024-03-02T05:13:27;99868.75;;;9.46;97.14
75891;BME280;64571;47.512;19.054;2024-03-02T05:16:33;99883.97;;;9.62;97.46
75891;BME280;64571;47.512;19.054;2024-03-02T05:19:36;99891.59;;;9.70;97.39
75891;BME280;64571;47.512;19.054;2024-03-02T05:22:39;99887.69;;;9.71;96.99
75891;BME280;64571;47.512;19.054;2024-03-02T05:25:42;99892.50;;;9.66;97.13
75891;BME280;64571;47.512;19.054;2024-03-02T05:28:44;99892.72;;;9.69;97.18
75891;BME280;64571;47.512;19.054;2024-03-02T05:31:47;99904.34;;;9.71;97.25
75891;BME280;64571;47.512;19.054;2024-03-02T05:34:50;99896.66;;;9.68;97.28
75891;BME280;64571;47.512;19.054;2024-03-02T05:37:53;99898.28;;;9.69;97.50
75891;BME280;64571;47.512;19.054;2024-03-02T05:40:55;99889.97;;;9.69;97.20
75891;BME280;64571;47.512;19.054;2024-03-02T05:43:58;99888.09;;;9.64;97.46
75891;BME280;64571;47.512;19.054;2024-03-02T05:47:01;99888.19;;;9.59;96.85
75891;BME280;64571;47.512;19.054;2024-03-02T05:50:04;99896.44;;;9.64;97.17
75891;BME280;64571;47.512;19.054;2024-03-02T05:53:07;99896.84;;;9.72;97.09
75891;BME280;64571;47.512;19.054;2024-03-02T05:56:09;99901.87;;;9.70;97.49
75891;BME280;64571;47.512;19.054;2024-03-02T05:59:12;99905.97;;;9.72;97.43
75891;BME280;64571;47.512;19.054;2024-03-02T06:02:15;99903.28;;;9.67;97.09
75891;BME280;64571;47.512;19.054;2024-03-02T06:05:18;99918.53;;;9.70;98.33
75891;BME280;64571;47.512;19.054;2024-03-02T06:08:21;99914.50;;;9.62;97.45
75891;BME280;64571;47.512;19.054;2024-03-02T06:11:23;99910.28;;;9.64;97.70
75891;BME280;64571;47.512;19.054;2024-03-02T06:14:27;99926.97;;;9.78;98.88
75891;BME280;64571;47.512;19.054;2024-03-02T06:17:30;99912.66;;;9.71;98.81
75891;BME280;64571;47.512;19.054;2024-03-02T06:20:33;99933.56;;;9.82;98.93
75891;BME280;64571;47.512;19.054;2024-03-02T06:23:41;99930.25;;;9.80;98.39
75891;BME280;64571;47.512;19.054;2024-03-02T06:26:43;99911.75;;;9.76;98.18
75891;BME280;64571;47.512;19.054;2024-03-02T06:29:46;99922.34;;;9.74;98.41
75891;BME280;64571;47.512;19.054;2024-03-02T06:32:48;99932.13;;;9.85;97.86
75891;BME280;64571;47.512;19.054;2024-03-02T06:35:51;99931.91;;;9.81;97.93
75891;BME280;64571;47.512;19.054;2024-03-02T06:38:54;99928.84;;;9.83;98.41
75891;BME280;64571;47.512;19.054;2024-03-02T06:41:56;99940.44;;;9.85;98.78
75891;BME280;64571;47.512;19.054;2024-03-02T06:44:59;99936.75;;;9.89;98.52
75891;BME280;64571;47.512;19.054;2024-03-02T06:48:02;99935.56;;;9.96;98.26
75891;BME280;64571;47.512;19.054;2024-03-02T06:51:04;99916.09;;;9.82;98.32
75891;BME280;64571;47.512;19.054;2024-03-02T06:54:07;99934.63;;;10.00;97.92
75891;BME280;64571;47.512;19.054;2024-03-02T06:57:09;99933.25;;;9.84;98.40
75891;BME280;64571;47.512;19.054;2024-03-02T07:00:13;99935.62;;;9.90;98.42
75891;BME280;64571;47.512;19.054;2024-03-02T07:03:16;99940.66;;;9.88;98.42
75891;BME280;64571;47.512;19.054;2024-03-02T07:06:19;99941.81;;;9.87;98.47
75891;BME280;64571;47.512;19.054;2024-03-02T07:09:21;99944.22;;;9.75;98.94
75891;BME280;64571;47.512;19.054;2024-03-02T07:12:27;99944.97;;;9.81;98.57
75891;BME280;64571;47.512;19.054;2024-03-02T07:15:29;99926.25;;;9.73;98.65
75891;BME280;64571;47.512;19.054;2024-03-02T07:18:47;99943.00;;;9.81;99.40
75891;BME280;64571;47.512;19.054;2024-03-02T07:21:54;99955.16;;;9.85;99.11
75891;BME280;64571;47.512;19.054;2024-03-02T07:24:57;99940.84;;;9.78;99.90
75891;BME280;64571;47.512;19.054;2024-03-02T07:27:59;99952.09;;;9.87;99.62
75891;BME280;64571;47.512;19.054;2024-03-02T07:31:03;99933.66;;;9.77;99.48
75891;BME280;64571;47.512;19.054;2024-03-02T07:34:07;99941.59;;;9.84;99.34
75891;BME280;64571;47.512;19.054;2024-03-02T07:37:09;99928.53;;;9.84;99.10
75891;BME280;64571;47.512;19.054;2024-03-02T07:40:12;99935.81;;;9.80;99.57
75891;BME280;64571;47.512;19.054;2024-03-02T07:43:15;99942.19;;;9.81;99.16
75891;BME280;64571;47.512;19.054;2024-03-02T07:46:17;99959.50;;;9.92;98.68
75891;BME280;64571;47.512;19.054;2024-03-02T07:49:20;99967.81;;;9.92;99.43
75891;BME280;64571;47.512;19.054;2024-03-02T07:52:23;99969.25;;;9.89;99.36
75891;BME280;64571;47.512;19.054;2024-03-02T07:55:25;99964.81;;;9.88;99.81
75891;BME280;64571;47.512;19.054;2024-03-02T07:58:28;99952.47;;;9.80;100.00
75891;BME280;64571;47.512;19.054;2024-03-02T08:01:32;99977.47;;;9.94;100.00
75891;BME280;64571;47.512;19.054;2024-03-02T08:04:35;99958.56;;;9.82;100.00
75891;BME280;64571;47.512;19.054;2024-03-02T08:07:39;99973.75;;;9.85;100.00
75891;BME280;64571;47.512;19.054;2024-03-02T08:10:41;99973.88;;;9.94;100.00
75891;BME280;64571;47.512;19.054;2024-03-02T08:13:44;99960.28;;;9.78;100.00
75891;BME280;64571;47.512;19.054;2024-03-02T08:16:46;99982.91;;;9.85;100.00
75891;BME280;64571;47.512;19.054;2024-03-02T08:19:49;99958.09;;;9.75;100.00
75891;BME280;64571;47.512;19.054;2024-03-02T08:22:51;99968.19;;;9.85;100.00
75891;BME280;64571;47.512;19.054;2024-03-02T08:25:57;99970.69;;;9.86;100.00
75891;BME280;64571;47.512;19.054;2024-03-02T08:29:00;99975.47;;;9.81;100.00
75891;BME280;64571;47.512;19.054;2024-03-02T08:32:05;99976.31;;;9.81;100.00
75891;BME280;64571;47.512;19.054;2024-03-02T08:35:08;99974.16;;;9.78;100.00
75891;BME280;64571;47.512;19.054;2024-03-02T08:38:11;99959.25;;;9.74;100.00
75891;BME280;64571;47.512;19.054;2024-03-02T08:41:13;99969.47;;;9.93;100.00
75891;BME280;64571;47.512;19.054;2024-03-02T08:44:20;99976.94;;;9.78;100.00
75891;BME280;64571;47.512;19.054;2024-03-02T08:47:24;99983.13;;;9.89;100.00
75891;BME280;64571;47.512;19.054;2024-03-02T08:50:26;99983.94;;;9.89;100.00
75891;BME280;64571;47.512;19.054;2024-03-02T08:53:29;99983.81;;;9.81;100.00
75891;BME280;64571;47.512;19.054;2024-03-02T08:56:31;99982.41;;;9.83;100.00
75891;BME280;64571;47.512;19.054;2024-03-02T08:59:34;99989.41;;;9.95;100.00
75891;BME280;64571;47.512;19.054;2024-03-02T09:02:37;99983.84;;;9.95;100.00
75891;BME280;64571;47.512;19.054;2024-03-02T09:05:40;99983.78;;;10.00;100.00
75891;BME280;64571;47.512;19.054;2024-03-02T09:08:43;99985.72;;;9.99;100.00
75891;BME280;64571;47.512;19.054;2024-03-02T09:11:46;99978.44;;;10.03;100.00
75891;BME280;64571;47.512;19.054;2024-03-02T09:14:49;99985.31;;;9.92;100.00
75891;BME280;64571;47.512;19.054;2024-03-02T09:17:52;99986.84;;;9.98;100.00
75891;BME280;64571;47.512;19.054;2024-03-02T09:20:54;99980.91;;;10.05;100.00
75891;BME280;64571;47.512;19.054;2024-03-02T09:23:58;99966.59;;;9.98;100.00
75891;BME280;64571;47.512;19.054;2024-03-02T09:27:00;99968.56;;;9.97;100.00
75891;BME280;64571;47.512;19.054;2024-03-02T09:30:07;99981.53;;;10.02;100.00
75891;BME280;64571;47.512;19.054;2024-03-02T09:33:09;99967.91;;;9.86;100.00
75891;BME280;64571;47.512;19.054;2024-03-02T09:36:19;99994.44;;;9.93;100.00
75891;BME280;64571;47.512;19.054;2024-03-02T09:39:22;99974.41;;;9.96;100.00
75891;BME280;64571;47.512;19.054;2024-03-02T09:42:25;99971.31;;;9.97;100.00
75891;BME280;64571;47.512;19.054;2024-03-02T09:45:29;99977.06;;;9.87;100.00
75891;BME280;64571;47.512;19.054;2024-03-02T09:48:32;99974.09;;;9.97;100.00
75891;BME280;64571;47.512;19.054;2024-03-02T09:51:35;99994.03;;;9.99;100.00
75891;BME280;64571;47.512;19.054;2024-03-02T09:54:39;100000.00;;;9.93;100.00
75891;BME280;64571;47.512;19.054;2024-03-02T09:57:42;99981.38;;;9.93;100.00
75891;BME280;64571;47.512;19.054;2024-03-02T10:00:44;99982.66;;;10.01;100.00
75891;BME280;64571;47.512;19.054;2024-03-02T10:03:48;99991.38;;;10.08;100.00
75891;BME280;64571;47.512;19.054;2024-03-02T10:07:16;99968.34;;;9.94;100.00
75891;BME280;64571;47.512;19.054;2024-03-02T10:10:20;99973.50;;;10.00;100.00
75891;BME280;64571;47.512;19.054;2024-03-02T10:13:24;99987.91;;;10.16;100.00
75891;BME280;64571;47.512;19.054;2024-03-02T10:16:27;99982.12;;;9.99;100.00
75891;BME280;64571;47.512;19.054;2024-03-02T10:19:30;99991.81;;;10.01;100.00
75891;BME280;64571;47.512;19.054;2024-03-02T10:22:35;99957.75;;;9.96;100.00
75891;BME280;64571;47.512;19.054;2024-03-02T10:25:38;99991.19;;;10.04;100.00
75891;BME280;64571;47.512;19.054;2024-03-02T10:28:53;99987.47;;;9.95;100.00
75891;BME280;64571;47.512;19.054;2024-03-02T10:32:02;99985.72;;;9.99;100.00
75891;BME280;64571;47.512;19.054;2024-03-02T10:35:05;99969.78;;;9.91;100.00
75891;BME280;64571;47.512;19.054;2024-03-02T10:38:11;99976.66;;;9.94;100.00
75891;BME280;64571;47.512;19.054;2024-03-02T10:41:18;99969.47;;;9.93;100.00
75891;BME280;64571;47.512;19.054;2024-03-02T10:44:22;99986.28;;;10.15;100.00
75891;BME280;64571;47.512;19.054;2024-03-02T10:47:25;99984.41;;;10.10;100.00
75891;BME280;64571;47.512;19.054;2024-03-02T10:50:29;99980.28;;;10.08;100.00
75891;BME280;64571;47.512;19.054;2024-03-02T10:53:32;99972.41;;;10.15;100.00
75891;BME280;64571;47.512;19.054;2024-03-02T10:56:43;99978.56;;;10.12;100.00
75891;BME280;64571;47.512;19.054;2024-03-02T10:59:56;99968.38;;;10.21;100.00
75891;BME280;64571;47.512;19.054;2024-03-02T11:03:07;99974.62;;;10.32;100.00
75891;BME280;64571;47.512;19.054;2024-03-02T11:06:13;99976.38;;;10.28;100.00
75891;BME280;64571;47.512;19.054;2024-03-02T11:09:18;99967.38;;;10.31;100.00
75891;BME280;64571;47.512;19.054;2024-03-02T11:12:28;99951.03;;;10.29;100.00
75891;BME280;64571;47.512;19.054;2024-03-02T11:15:33;99975.78;;;10.45;100.00
75891;BME280;64571;47.512;19.054;2024-03-02T11:18:37;99951.16;;;10.24;100.00
75891;BME280;64571;47.512;19.054;2024-03-02T11:21:40;99956.50;;;10.34;100.00
75891;BME280;64571;47.512;19.054;2024-03-02T11:24:50;99969.91;;;10.46;100.00
75891;BME280;64571;47.512;19.054;2024-03-02T11:30:56;99958.47;;;10.48;100.00
75891;BME280;64571;47.512;19.054;2024-03-02T11:34:17;99957.03;;;10.50;100.00
75891;BME280;64571;47.512;19.054;2024-03-02T11:37:21;99936.94;;;10.39;100.00
75891;BME280;64571;47.512;19.054;2024-03-02T11:40:24;99953.13;;;10.37;100.00
75891;BME280;64571;47.512;19.054;2024-03-02T11:43:28;99949.19;;;10.52;100.00
75891;BME280;64571;47.512;19.054;2024-03-02T11:46:31;99937.16;;;10.43;100.00
75891;BME280;64571;47.512;19.054;2024-03-02T11:49:50;99955.28;;;10.54;100.00
75891;BME280;64571;47.512;19.054;2024-03-02T11:52:53;99950.84;;;10.39;100.00
75891;BME280;64571;47.512;19.054;2024-03-02T11:55:56;99942.59;;;10.48;100.00
75891;BME280;64571;47.512;19.054;2024-03-02T11:59:00;99938.09;;;10.38;99.70
75891;BME280;64571;47.512;19.054;2024-03-02T12:02:03;99951.38;;;10.42;99.75
75891;BME280;64571;47.512;19.054;2024-03-02T12:05:07;99948.69;;;10.50;99.81
75891;BME280;64571;47.512;19.054;2024-03-02T12:08:12;99952.91;;;10.61;100.00
75891;BME280;64571;47.512;19.054;2024-03-02T12:11:15;99937.38;;;10.33;100.00
75891;BME280;64571;47.512;19.054;2024-03-02T12:14:18;99949.50;;;10.37;100.00
75891;BME280;64571;47.512;19.054;2024-03-02T12:17:22;99926.44;;;10.09;100.00
75891;BME280;64571;47.512;19.054;2024-03-02T12:20:26;99948.88;;;10.26;100.00
75891;BME280;64571;47.512;19.054;2024-03-02T12:23:29;99954.16;;;10.42;100.00
75891;BME280;64571;47.512;19.054;2024-03-02T12:26:31;99948.81;;;10.31;100.00
75891;BME280;64571;47.512;19.054;2024-03-02T12:29:35;99940.47;;;10.31;100.00
75891;BME280;64571;47.512;19.054;2024-03-02T12:32:37;99952.50;;;10.41;100.00
75891;BME280;64571;47.512;19.054;2024-03-02T12:35:42;99958.78;;;10.32;100.00
75891;BME280;64571;47.512;19.054;2024-03-02T12:38:45;99949.31;;;10.33;100.00
75891;BME280;64571;47.512;19.054;2024-03-02T12:41:50;99959.59;;;10.33;100.00
75891;BME280;64571;47.512;19.054;2024-03-02T12:44:53;99948.28;;;10.29;100.00
75891;BME280;64571;47.512;19.054;2024-03-02T12:48:00;99950.00;;;10.25;100.00
75891;BME280;64571;47.512;19.054;2024-03-02T12:51:02;99945.09;;;10.36;100.00
75891;BME280;64571;47.512;19.054;2024-03-02T12:54:08;99951.88;;;10.44;100.00
75891;BME280;64571;47.512;19.054;2024-03-02T12:57:17;99953.00;;;10.43;100.00
75891;BME280;64571;47.512;19.054;2024-03-02T13:00:20;99956.09;;;10.27;99.46
75891;BME280;64571;47.512;19.054;2024-03-02T13:03:25;99937.53;;;10.09;99.40
75891;BME280;64571;47.512;19.054;2024-03-02T13:06:27;99953.38;;;10.22;100.00
75891;BME280;64571;47.512;19.054;2024-03-02T13:09:30;99951.16;;;10.24;100.00
75891;BME280;64571;47.512;19.054;2024-03-02T13:12:35;99933.53;;;10.15;100.00
75891;BME280;64571;47.512;19.054;2024-03-02T13:15:38;99951.66;;;10.26;100.00
75891;BME280;64571;47.512;19.054;2024-03-02T13:18:42;99933.41;;;10.20;100.00
75891;BME280;64571;47.512;19.054;2024-03-02T13:21:44;99955.84;;;10.24;100.00
75891;BME280;64571;47.512;19.054;2024-03-02T13:24:48;99949.25;;;10.20;100.00
75891;BME280;64571;47.512;19.054;2024-03-02T13:27:51;99956.25;;;10.17;100.00
75891;BME280;64571;47.512;19.054;2024-03-02T13:30:53;99952.53;;;10.08;100.00
75891;BME280;64571;47.512;19.054;2024-03-02T13:33:56;99954.87;;;10.01;100.00
75891;BME280;64571;47.512;19.054;2024-03-02T13:36:59;99935.22;;;9.83;100.00
75891;BME280;64571;47.512;19.054;2024-03-02T13:40:04;99935.59;;;9.77;100.00
75891;BME280;64571;47.512;19.054;2024-03-02T13:43:07;99957.44;;;9.97;100.00
75891;BME280;64571;47.512;19.054;2024-03-02T13:46:10;99961.13;;;9.93;100.00
75891;BME280;64571;47.512;19.054;2024-03-02T13:49:13;99964.50;;;9.89;100.00
75891;BME280;64571;47.512;19.054;2024-03-02T13:52:16;99951.25;;;9.86;100.00
75891;BME280;64571;47.512;19.054;2024-03-02T13:55:23;99958.28;;;9.98;100.00
75891;BME280;64571;47.512;19.054;2024-03-02T13:58:25;99960.53;;;9.96;100.00
75891;BME280;64571;47.512;19.054;2024-03-02T14:01:29;99960.28;;;9.78;100.00
75891;BME280;64571;47.512;19.054;2024-03-02T14:04:32;99959.84;;;9.71;100.00
75891;BME280;64571;47.512;19.054;2024-03-02T14:07:40;99960.50;;;9.82;100.00
75891;BME280;64571;47.512;19.054;2024-03-02T14:10:43;99972.94;;;9.84;100.00
75891;BME280;64571;47.512;19.054;2024-03-02T14:13:45;99965.44;;;9.85;100.00
75891;BME280;64571;47.512;19.054;2024-03-02T14:16:56;99965.34;;;9.90;100.00
75891;BME280;64571;47.512;19.054;2024-03-02T14:20:02;99955.97;;;9.86;100.00
75891;BME280;64571;47.512;19.054;2024-03-02T14:23:07;99973.66;;;9.90;100.00
75891;BME280;64571;47.512;19.054;2024-03-02T14:26:09;99981.69;;;9.92;100.00
75891;BME280;64571;47.512;19.054;2024-03-02T14:29:12;99964.25;;;9.72;100.00
75891;BME280;64571;47.512;19.054;2024-03-02T14:32:15;99976.84;;;9.83;100.00
75891;BME280;64571;47.512;19.054;2024-03-02T14:35:18;99977.34;;;9.85;100.00
75891;BME280;64571;47.512;19.054;2024-03-02T14:38:20;99980.22;;;9.80;100.00
75891;BME280;64571;47.512;19.054;2024-03-02T14:41:23;99976.84;;;9.83;100.00
75891;BME280;64571;47.512;19.054;2024-03-02T14:44:26;99969.28;;;9.70;100.00
75891;BME280;64571;47.512;19.054;2024-03-02T14:47:31;99972.72;;;9.81;100.00
75891;BME280;64571;47.512;19.054;2024-03-02T14:50:34;99969.75;;;9.77;100.00
75891;BME280;64571;47.512;19.054;2024-03-02T14:53:37;99970.16;;;9.84;100.00
75891;BME280;64571;47.512;19.054;2024-03-02T14:56:40;99955.16;;;9.85;100.00
75891;BME280;64571;47.512;19.054;2024-03-02T14:59:42;99980.03;;;9.90;100.00
75891;BME280;64571;47.512;19.054;2024-03-02T15:02:45;99965.88;;;9.92;100.00
75891;BME280;64571;47.512;19.054;2024-03-02T15:05:48;99972.03;;;9.89;100.00
75891;BME280;64571;47.512;19.054;2024-03-02T15:08:54;99972.47;;;9.96;100.00
75891;BME280;64571;47.512;19.054;2024-03-02T15:11:57;99968.88;;;9.77;100.00
75891;BME280;64571;47.512;19.054;2024-03-02T15:14:59;99976.47;;;9.71;100.00
75891;BME280;64571;47.512;19.054;2024-03-02T15:18:03;99958.00;;;9.48;100.00
75891;BME280;64571;47.512;19.054;2024-03-02T15:21:08;99972.38;;;9.50;100.00
75891;BME280;64571;47.512;19.054;2024-03-02T15:24:11;99969.06;;;9.67;100.00
75891;BME280;64571;47.512;19.054;2024-03-02T15:27:14;99960.47;;;9.68;100.00
75891;BME280;64571;47.512;19.054;2024-03-02T15:30:16;99969.87;;;9.67;100.00
75891;BME280;64571;47.512;19.054;2024-03-02T15:33:19;99976.72;;;9.75;100.00
75891;BME280;64571;47.512;19.054;2024-03-02T15:36:22;99970.75;;;9.81;100.00
75891;BME280;64571;47.512;19.054;2024-03-02T15:39:25;99977.87;;;9.87;100.00
75891;BME280;64571;47.512;19.054;2024-03-02T15:42:28;99969.56;;;9.87;100.00
75891;BME280;64571;47.512;19.054;2024-03-02T15:45:31;99966.91;;;9.96;100.00
75891;BME280;64571;47.512;19.054;2024-03-02T15:48:36;99973.38;;;9.92;100.00
75891;BME280;64571;47.512;19.054;2024-03-02T15:51:39;99981.00;;;10.00;100.00
75891;BME280;64571;47.512;19.054;2024-03-02T15:54:46;99971.72;;;9.90;100.00
75891;BME280;64571;47.512;19.054;2024-03-02T15:57:48;99965.28;;;9.95;100.00
75891;BME280;64571;47.512;19.054;2024-03-02T16:00:52;99967.50;;;9.93;100.00
75891;BME280;64571;47.512;19.054;2024-03-02T16:03:55;99977.78;;;9.93;100.00
75891;BME280;64571;47.512;19.054;2024-03-02T16:06:58;99954.72;;;9.78;100.00